Time;durP1;ratioP1;P1;durP2;ratioP2;P2;SDS_P1;SDS_P2;PMS_P1;PMS_P2;Temp;Humidity;BMP_temperature;BMP_pressure;BME280_temperature;BME280_humidity;BME280_pressure;Samples;Min_cycle;Max_cycle;Signal;HPM_P1;HPM_P2
2023/08/11 00:01:17;;;;;;;6.20;4.07;;;;;;;-145.14;100.00;70583.66;5004822;28;20679;-68
2023/08/11 00:03:46;;;;;;;4.60;3.20;;;;;;;-145.14;100.00;70583.66;4999485;28;20451;-67
2023/08/11 00:06:12;;;;;;;6.13;3.47;;;;;;;-145.14;100.00;70583.66;4992608;28;20190;-67
2023/08/11 00:08:39;;;;;;;8.70;4.07;;;;;;;-145.14;100.00;70583.66;4991884;28;20962;-67
2023/08/11 00:11:06;;;;;;;9.67;4.10;;;;;;;-145.14;100.00;70583.66;4993119;28;20438;-66
2023/08/11 00:13:32;;;;;;;11.03;5.80;;;;;;;-145.14;100.00;70583.66;4991069;28;20571;-67
2023/08/11 00:15:58;;;;;;;5.33;4.30;;;;;;;-145.14;100.00;70583.66;4989484;28;20535;-67
2023/08/11 00:18:23;;;;;;;5.33;4.00;;;;;;;-145.14;100.00;70583.66;5003818;28;20486;-67
2023/08/11 00:20:49;;;;;;;5.07;4.10;;;;;;;-145.14;100.00;70583.66;4990347;28;21057;-67
2023/08/11 00:23:15;;;;;;;5.73;4.20;;;;;;;-145.14;100.00;70583.66;4989733;28;20205;-67
2023/08/11 00:25:40;;;;;;;7.40;4.40;;;;;;;-145.14;100.00;70583.66;4994293;28;20684;-67
2023/08/11 00:28:06;;;;;;;10.40;4.50;;;;;;;-145.14;100.00;70583.66;4990947;28;20452;-67
2023/08/11 00:30:31;;;;;;;5.57;3.27;;;;;;;-145.14;100.00;70583.66;4990420;28;20205;-67
2023/08/11 00:32:57;;;;;;;4.47;3.40;;;;;;;-145.14;100.00;70583.66;4992971;28;20182;-67
2023/08/11 00:35:23;;;;;;;6.20;4.60;;;;;;;-145.14;100.00;70583.66;4992255;28;20181;-67
2023/08/11 00:37:49;;;;;;;5.10;3.30;;;;;;;-145.14;100.00;70583.66;4990168;28;20186;-67
2023/08/11 00:40:15;;;;;;;4.77;3.47;;;;;;;-145.14;100.00;70583.66;4988957;28;20232;-67
2023/08/11 00:42:42;;;;;;;5.03;3.73;;;;;;;-145.14;100.00;70583.66;4989828;28;20603;-67
2023/08/11 00:45:09;;;;;;;6.10;4.00;;;;;;;-145.14;100.00;70583.66;4990466;28;20570;-67
2023/08/11 00:47:35;;;;;;;7.30;4.97;;;;;;;-145.14;100.00;70583.66;4991143;28;20463;-67
2023/08/11 00:50:02;;;;;;;5.57;3.97;;;;;;;-145.14;100.00;70583.66;4987180;28;20491;-67
2023/08/11 00:52:28;;;;;;;11.00;4.20;;;;;;;-145.14;100.00;70583.66;5012551;28;20439;-67
2023/08/11 00:54:56;;;;;;;7.00;3.87;;;;;;;-145.14;100.00;70583.66;4991641;28;20551;-67
2023/08/11 00:57:21;;;;;;;5.03;3.30;;;;;;;-145.14;100.00;70583.66;4989889;28;20866;-67
2023/08/11 00:59:48;;;;;;;5.90;3.87;;;;;;;-145.14;100.00;70583.66;4989448;28;20472;-67
2023/08/11 01:02:13;;;;;;;5.47;3.27;;;;;;;-145.14;100.00;70583.66;4987810;28;20192;-67
2023/08/11 01:04:39;;;;;;;3.87;3.40;;;;;;;-145.14;100.00;70583.66;4991259;28;20489;-67
2023/08/11 01:07:17;;;;;;;5.27;3.80;;;;;;;-145.14;100.00;70583.66;4985677;28;20555;-66
2023/08/11 01:09:54;;;;;;;4.90;4.10;;;;;;;-145.14;100.00;70583.66;4989680;28;20241;-67
2023/08/11 01:12:29;;;;;;;4.83;3.73;;;;;;;-145.14;100.00;70583.66;4991588;28;20435;-67
2023/08/11 01:15:14;;;;;;;5.90;3.87;;;;;;;-145.14;100.00;70583.66;4994454;28;20519;-67
2023/08/11 01:17:41;;;;;;;4.57;4.17;;;;;;;-145.14;100.00;70583.66;4989787;28;20465;-67
2023/08/11 01:20:11;;;;;;;4.73;3.97;;;;;;;-145.14;100.00;70583.66;4990117;28;20460;-67
2023/08/11 01:22:41;;;;;;;5.97;3.57;;;;;;;-145.14;100.00;70583.66;4989659;28;21016;-67
2023/08/11 01:25:08;;;;;;;5.27;4.10;;;;;;;-145.14;100.00;70583.66;4990750;28;20559;-67
2023/08/11 01:27:43;;;;;;;5.13;3.50;;;;;;;-145.14;100.00;70583.66;4988260;28;20443;-66
2023/08/11 01:30:10;;;;;;;5.73;3.50;;;;;;;-145.14;100.00;70583.66;4988847;28;20463;-67
2023/08/11 01:32:36;;;;;;;4.17;3.17;;;;;;;-145.14;100.00;70583.66;4988888;28;20523;-67
2023/08/11 01:35:05;;;;;;;5.83;3.67;;;;;;;-145.14;100.00;70583.66;4989126;28;21307;-67
2023/08/11 01:37:31;;;;;;;6.97;4.23;;;;;;;-145.14;100.00;70583.66;4988525;28;20892;-66
2023/08/11 01:39:57;;;;;;;4.40;3.40;;;;;;;-145.14;100.00;70583.66;4989300;28;20893;-67
2023/08/11 01:42:23;;;;;;;3.97;3.40;;;;;;;-145.14;100.00;70583.66;4991741;28;20473;-67
2023/08/11 01:44:49;;;;;;;3.83;2.77;;;;;;;-145.14;100.00;70583.66;4987646;28;20884;-67
2023/08/11 01:47:15;;;;;;;4.77;3.30;;;;;;;-145.14;100.00;70583.66;4986951;28;20440;-67
2023/08/11 01:49:42;;;;;;;3.80;2.80;;;;;;;-145.14;100.00;70583.66;5003671;28;20197;-67
2023/08/11 01:52:08;;;;;;;6.27;3.13;;;;;;;-145.14;100.00;70583.66;4987330;28;20544;-67
2023/08/11 01:54:34;;;;;;;5.47;4.00;;;;;;;-145.14;100.00;70583.66;4987932;28;20424;-67
2023/08/11 01:57:00;;;;;;;4.83;3.50;;;;;;;-145.14;100.00;70583.66;4990034;28;21261;-67
2023/08/11 01:59:25;;;;;;;5.30;3.53;;;;;;;-145.14;100.00;70583.66;4993902;28;20475;-67
2023/08/11 02:01:51;;;;;;;6.50;3.80;;;;;;;-145.14;100.00;70583.66;4993769;28;20448;-67
2023/08/11 02:04:17;;;;;;;7.33;3.57;;;;;;;-145.14;100.00;70583.66;4990199;28;20236;-67
2023/08/11 02:06:45;;;;;;;3.67;3.00;;;;;;;-145.14;100.00;70583.66;4993853;28;20520;-67
2023/08/11 02:09:12;;;;;;;4.73;3.80;;;;;;;-145.14;100.00;70583.66;4994852;28;20485;-67
2023/08/11 02:11:39;;;;;;;7.00;4.83;;;;;;;-145.14;100.00;70583.66;4990869;28;20440;-67
2023/08/11 02:14:05;;;;;;;5.40;4.00;;;;;;;-145.14;100.00;70583.66;4994123;28;20480;-67
2023/08/11 02:16:32;;;;;;;5.23;4.00;;;;;;;-145.14;100.00;70583.66;4993464;28;20460;-67
2023/08/11 02:18:58;;;;;;;7.07;4.10;;;;;;;-145.14;100.00;70583.66;4991205;28;20457;-67
2023/08/11 02:21:23;;;;;;;6.47;4.70;;;;;;;-145.14;100.00;70583.66;4992176;28;20515;-67
2023/08/11 02:23:49;;;;;;;5.40;3.60;;;;;;;-145.14;100.00;70583.66;4992858;28;20531;-67
2023/08/11 02:26:15;;;;;;;5.30;4.23;;;;;;;-145.14;100.00;70583.66;4991787;28;20706;-67
2023/08/11 02:28:41;;;;;;;5.87;4.70;;;;;;;-145.14;100.00;70583.66;4989837;28;20186;-67
2023/08/11 02:31:08;;;;;;;5.90;4.70;;;;;;;-145.14;100.00;70583.66;5007287;28;20732;-67
2023/08/11 02:33:34;;;;;;;5.73;4.53;;;;;;;-145.14;100.00;70583.66;4994921;28;20479;-67
2023/08/11 02:36:00;;;;;;;6.70;5.43;;;;;;;-145.14;100.00;70583.66;4991976;28;20480;-67
2023/08/11 02:38:25;;;;;;;9.27;5.50;;;;;;;-145.14;100.00;70583.66;5009330;28;20451;-67
2023/08/11 02:40:51;;;;;;;6.20;4.40;;;;;;;-145.14;100.00;70583.66;4991913;28;20452;-67
2023/08/11 02:43:16;;;;;;;6.40;4.83;;;;;;;-145.14;100.00;70583.66;4997780;28;20185;-67
2023/08/11 02:45:41;;;;;;;7.83;5.20;;;;;;;-145.14;100.00;70583.66;4991923;28;20214;-67
2023/08/11 02:48:07;;;;;;;6.70;4.63;;;;;;;-145.14;100.00;70583.66;4992262;28;20200;-67
2023/08/11 02:50:32;;;;;;;7.40;5.83;;;;;;;-145.14;100.00;70583.66;4994328;28;20209;-67
2023/08/11 02:52:58;;;;;;;9.30;6.27;;;;;;;-145.14;100.00;70583.66;4994486;28;20574;-67
2023/08/11 02:55:24;;;;;;;6.77;6.07;;;;;;;-145.14;100.00;70583.66;4990730;28;20190;-67
2023/08/11 02:57:50;;;;;;;6.97;5.80;;;;;;;-145.14;100.00;70583.66;4991120;28;20789;-67
2023/08/11 03:00:17;;;;;;;7.07;5.53;;;;;;;-145.14;100.00;70583.66;4991320;28;20218;-67
2023/08/11 03:02:45;;;;;;;6.87;6.10;;;;;;;-145.14;100.00;70583.66;4991228;28;20476;-67
2023/08/11 03:05:11;;;;;;;7.33;6.20;;;;;;;-145.14;100.00;70583.66;4990069;28;20506;-67
2023/08/11 03:07:40;;;;;;;7.70;5.90;;;;;;;-145.14;100.00;70583.66;4991721;28;20939;-67
2023/08/11 03:10:09;;;;;;;7.60;5.67;;;;;;;-145.14;100.00;70583.66;4990262;28;20460;-67
2023/08/11 03:12:35;;;;;;;7.20;6.30;;;;;;;-145.14;100.00;70583.66;4991019;28;20448;-67
2023/08/11 03:15:04;;;;;;;9.57;6.27;;;;;;;-145.14;100.00;70583.66;5005461;28;20889;-67
2023/08/11 03:17:30;;;;;;;10.07;5.90;;;;;;;-145.14;100.00;70583.66;4992417;28;20506;-67
2023/08/11 03:19:55;;;;;;;13.10;6.30;;;;;;;-145.14;100.00;70583.66;4991082;28;20469;-67
2023/08/11 03:22:21;;;;;;;7.83;7.00;;;;;;;-145.14;100.00;70583.66;4991723;28;20521;-67
2023/08/11 03:24:46;;;;;;;10.30;7.80;;;;;;;-145.14;100.00;70583.66;4992023;28;20233;-67
2023/08/11 03:27:12;;;;;;;10.27;7.27;;;;;;;-145.14;100.00;70583.66;4992857;28;20189;-67
2023/08/11 03:29:38;;;;;;;9.97;8.27;;;;;;;-145.14;100.00;70583.66;4992030;28;20259;-67
2023/08/11 03:32:04;;;;;;;10.63;8.03;;;;;;;-145.14;100.00;70583.66;4993869;28;20194;-67
2023/08/11 03:34:29;;;;;;;9.50;7.00;;;;;;;-145.14;100.00;70583.66;4990252;28;20560;-67
2023/08/11 03:36:55;;;;;;;9.33;7.10;;;;;;;-145.14;100.00;70583.66;4993309;28;20571;-67
2023/08/11 03:39:20;;;;;;;9.33;7.27;;;;;;;-145.14;100.00;70583.66;4993665;28;20245;-67
2023/08/11 03:41:46;;;;;;;10.60;8.13;;;;;;;-145.14;100.00;70583.66;4993360;28;20194;-67
2023/08/11 03:44:11;;;;;;;8.67;7.77;;;;;;;-145.14;100.00;70583.66;4992907;28;20212;-67
2023/08/11 03:46:37;;;;;;;9.67;6.43;;;;;;;-145.14;100.00;70583.66;4989729;28;20182;-67
2023/08/11 03:49:02;;;;;;;8.47;6.70;;;;;;;-145.14;100.00;70583.66;4993736;28;20689;-67
2023/08/11 03:51:28;;;;;;;7.23;6.40;;;;;;;-145.14;100.00;70583.66;4992120;28;20195;-67
2023/08/11 03:53:53;;;;;;;9.90;7.10;;;;;;;-145.14;100.00;70583.66;4993734;28;20194;-67
2023/08/11 03:56:19;;;;;;;11.73;7.03;;;;;;;-145.14;100.00;70583.66;4988750;28;20194;-67
2023/08/11 03:58:45;;;;;;;7.10;6.33;;;;;;;-145.14;100.00;70583.66;4988519;28;20217;-67
2023/08/11 04:01:12;;;;;;;8.00;7.20;;;;;;;-145.14;100.00;70583.66;4990665;28;20201;-67
2023/08/11 04:03:37;;;;;;;8.30;7.20;;;;;;;-145.14;100.00;70583.66;4989881;28;20650;-67
2023/08/11 04:06:03;;;;;;;7.90;6.83;;;;;;;-145.14;100.00;70583.66;4988704;28;20485;-67
2023/08/11 04:08:29;;;;;;;9.27;7.40;;;;;;;-145.14;100.00;70583.66;4989050;28;20197;-67
2023/08/11 04:10:55;;;;;;;8.57;7.47;;;;;;;-145.14;100.00;70583.66;4993522;28;20206;-67
2023/08/11 04:13:21;;;;;;;8.73;6.70;;;;;;;-145.14;100.00;70583.66;4989639;28;20200;-67
2023/08/11 04:15:47;;;;;;;7.73;6.60;;;;;;;-145.14;100.00;70583.66;4988212;28;20811;-66
2023/08/11 04:18:13;;;;;;;8.80;6.23;;;;;;;-145.14;100.00;70583.66;4992007;28;20672;-66
2023/08/11 04:20:39;;;;;;;8.63;6.90;;;;;;;-145.14;100.00;70583.66;4988782;28;20463;-67
2023/08/11 04:23:05;;;;;;;8.60;6.73;;;;;;;-145.14;100.00;70583.66;4997662;28;21887;-67
2023/08/11 04:25:30;;;;;;;7.33;6.30;;;;;;;-145.14;100.00;70583.66;4988409;28;21380;-66
2023/08/11 04:27:56;;;;;;;7.57;6.77;;;;;;;-145.14;100.00;70583.66;4987450;28;20216;-67
2023/08/11 04:30:21;;;;;;;9.93;6.37;;;;;;;-145.14;100.00;70583.66;4989315;28;20306;-67
2023/08/11 04:32:47;;;;;;;6.63;5.93;;;;;;;-145.14;100.00;70583.66;4990271;28;20182;-67
2023/08/11 04:35:13;;;;;;;7.27;6.53;;;;;;;-145.14;100.00;70583.66;5005717;28;20264;-67
2023/08/11 04:37:39;;;;;;;10.23;7.37;;;;;;;-145.14;100.00;70583.66;5009601;28;20197;-67
2023/08/11 04:40:13;;;;;;;7.30;6.53;;;;;;;-145.14;100.00;70583.66;4991589;28;20206;-67
2023/08/11 04:42:39;;;;;;;8.30;7.10;;;;;;;-145.14;100.00;70583.66;4989818;28;20196;-66
2023/08/11 04:45:05;;;;;;;8.60;7.60;;;;;;;-145.14;100.00;70583.66;4989733;28;20473;-67
2023/08/11 04:47:31;;;;;;;10.40;7.20;;;;;;;-145.14;100.00;70583.66;4988829;28;20444;-67
2023/08/11 04:49:57;;;;;;;8.53;7.37;;;;;;;-145.14;100.00;70583.66;4989399;28;20992;-67
2023/08/11 04:52:22;;;;;;;9.03;7.80;;;;;;;-145.14;100.00;70583.66;4989936;28;20193;-67
2023/08/11 04:54:48;;;;;;;10.33;7.40;;;;;;;-145.14;100.00;70583.66;4987640;28;20940;-67
2023/08/11 04:57:13;;;;;;;7.97;6.20;;;;;;;-145.14;100.00;70583.66;4988219;28;20293;-67
2023/08/11 04:59:39;;;;;;;8.93;6.80;;;;;;;-145.14;100.00;70583.66;4987765;28;20283;-67
2023/08/11 05:02:04;;;;;;;6.40;5.25;;;;;;;-145.14;100.00;70583.66;4991596;28;20194;-67
2023/08/11 05:04:30;;;;;;;7.60;5.53;;;;;;;-145.14;100.00;70583.66;4989052;28;20213;-67
2023/08/11 05:06:56;;;;;;;7.87;6.20;;;;;;;-145.14;100.00;70583.66;4988935;28;20243;-67
2023/08/11 05:09:21;;;;;;;7.50;6.10;;;;;;;-145.14;100.00;70583.66;4993091;28;20974;-67
2023/08/11 05:11:47;;;;;;;7.90;5.80;;;;;;;-145.14;100.00;70583.66;4990632;28;20197;-67
2023/08/11 05:14:15;;;;;;;5.83;4.30;;;;;;;-145.14;100.00;70583.66;4990227;28;20180;-67
2023/08/11 05:16:41;;;;;;;7.03;4.80;;;;;;;-145.14;100.00;70583.66;4990932;28;20193;-67
2023/08/11 05:19:07;;;;;;;6.50;5.40;;;;;;;-145.14;100.00;70583.66;5001138;28;20476;-67
2023/08/11 05:21:32;;;;;;;6.80;5.00;;;;;;;-145.14;100.00;70583.66;4988880;28;20242;-67
2023/08/11 05:23:57;;;;;;;6.90;5.60;;;;;;;-145.14;100.00;70583.66;4989748;28;20209;-67
2023/08/11 05:26:23;;;;;;;6.43;4.70;;;;;;;-145.14;100.00;70583.66;4991551;28;20577;-67
2023/08/11 05:28:48;;;;;;;6.27;5.10;;;;;;;-145.14;100.00;70583.66;4988864;28;20201;-67
2023/08/11 05:31:14;;;;;;;7.75;4.85;;;;;;;-145.14;100.00;70583.66;4996757;28;20589;-67
2023/08/11 05:33:40;;;;;;;4.97;4.47;;;;;;;-145.14;100.00;70583.66;4988918;28;20190;-67
2023/08/11 05:36:06;;;;;;;5.70;4.37;;;;;;;-145.14;100.00;70583.66;4991838;28;20185;-67
2023/08/11 05:38:31;;;;;;;7.17;4.40;;;;;;;-145.14;100.00;70583.66;4999085;28;20440;-67
2023/08/11 05:40:56;;;;;;;7.30;4.30;;;;;;;-145.14;100.00;70583.66;4996381;28;20546;-67
2023/08/11 05:43:22;;;;;;;5.97;3.90;;;;;;;-145.14;100.00;70583.66;4992159;28;20190;-67
2023/08/11 05:45:47;;;;;;;5.90;3.97;;;;;;;-145.14;100.00;70583.66;4994125;28;20729;-67
2023/08/11 05:48:13;;;;;;;7.90;4.20;;;;;;;-145.14;100.00;70583.66;4995885;28;20677;-67
2023/08/11 05:50:39;;;;;;;7.70;3.60;;;;;;;-145.14;100.00;70583.66;4994445;28;20208;-67
2023/08/11 05:53:05;;;;;;;6.80;3.90;;;;;;;-145.14;100.00;70583.66;4992854;28;20638;-67
2023/08/11 05:55:30;;;;;;;4.83;3.67;;;;;;;-145.14;100.00;70583.66;4993571;28;20459;-68
2023/08/11 05:57:56;;;;;;;7.17;3.57;;;;;;;-145.14;100.00;70583.66;4994071;28;20673;-67
2023/08/11 06:00:22;;;;;;;5.37;3.53;;;;;;;-145.14;100.00;70583.66;4990456;28;20682;-67
2023/08/11 06:02:47;;;;;;;3.77;3.17;;;;;;;-145.14;100.00;70583.66;4990378;28;20194;-67
2023/08/11 06:05:12;;;;;;;4.10;3.50;;;;;;;-145.14;100.00;70583.66;4992273;28;20476;-67
2023/08/11 06:07:39;;;;;;;8.75;5.20;;;;;;;-145.14;100.00;70583.66;4995769;28;20195;-67
2023/08/11 06:10:05;;;;;;;5.00;4.03;;;;;;;-145.14;100.00;70583.66;5002396;28;20217;-67
2023/08/11 06:12:31;;;;;;;5.80;3.20;;;;;;;-145.14;100.00;70583.66;4996738;28;20444;-67
2023/08/11 06:14:56;;;;;;;11.30;3.90;;;;;;;-145.14;100.00;70583.66;4992845;28;20485;-67
2023/08/11 06:17:21;;;;;;;6.93;3.97;;;;;;;-145.14;100.00;70583.66;4991771;28;20197;-67
2023/08/11 06:19:47;;;;;;;5.37;3.43;;;;;;;-145.14;100.00;70583.66;4998938;28;20259;-67
2023/08/11 06:22:13;;;;;;;6.20;4.13;;;;;;;-145.14;100.00;70583.66;4992019;28;20642;-67
2023/08/11 06:24:38;;;;;;;6.10;3.53;;;;;;;-145.14;100.00;70583.66;4994278;28;20212;-67
2023/08/11 06:27:04;;;;;;;4.43;2.77;;;;;;;-145.14;100.00;70583.66;4997599;28;20193;-67
2023/08/11 06:29:29;;;;;;;5.40;3.87;;;;;;;-145.14;100.00;70583.66;4992893;28;20210;-67
2023/08/11 06:31:55;;;;;;;4.83;3.50;;;;;;;-145.14;100.00;70583.66;4994498;28;20190;-67
2023/08/11 06:34:21;;;;;;;5.20;4.30;;;;;;;-145.14;100.00;70583.66;4990214;28;20193;-67
2023/08/11 06:36:47;;;;;;;8.83;4.17;;;;;;;-145.14;100.00;70583.66;4990565;28;20650;-67
2023/08/11 06:39:13;;;;;;;5.63;3.00;;;;;;;-145.14;100.00;70583.66;4993546;28;20994;-67
2023/08/11 06:41:39;;;;;;;3.90;3.47;;;;;;;-145.14;100.00;70583.66;4992622;28;20535;-67
2023/08/11 06:44:05;;;;;;;6.33;4.07;;;;;;;-145.14;100.00;70583.66;4991984;28;20216;-68
2023/08/11 06:46:31;;;;;;;8.27;3.87;;;;;;;-145.14;100.00;70583.66;4990579;28;20198;-67
2023/08/11 06:48:56;;;;;;;6.03;3.37;;;;;;;-145.14;100.00;70583.66;4991618;28;20491;-67
2023/08/11 06:51:22;;;;;;;4.30;3.10;;;;;;;-145.14;100.00;70583.66;4990395;28;20444;-68
2023/08/11 06:53:47;;;;;;;7.83;3.10;;;;;;;-145.14;100.00;70583.66;4992730;28;20253;-67
2023/08/11 06:56:13;;;;;;;3.50;3.20;;;;;;;-145.14;100.00;70583.66;5002982;28;20191;-67
2023/08/11 06:58:38;;;;;;;5.20;3.57;;;;;;;-145.14;100.00;70583.66;4994574;28;20312;-68
2023/08/11 07:01:04;;;;;;;5.35;2.75;;;;;;;-145.14;100.00;70583.66;4989555;28;20273;-67
2023/08/11 07:03:30;;;;;;;4.43;3.10;;;;;;;-145.14;100.00;70583.66;4990145;28;20617;-67
2023/08/11 07:05:55;;;;;;;10.57;3.70;;;;;;;-145.14;100.00;70583.66;4990632;28;20704;-67
2023/08/11 07:08:23;;;;;;;4.10;2.70;;;;;;;-145.14;100.00;70583.66;4996639;28;20451;-68
2023/08/11 07:10:48;;;;;;;10.40;3.50;;;;;;;-145.14;100.00;70583.66;4993371;28;20210;-67
2023/08/11 07:13:13;;;;;;;3.50;2.90;;;;;;;-145.14;100.00;70583.66;4992293;28;20445;-67
2023/08/11 07:15:42;;;;;;;5.10;3.27;;;;;;;-145.14;100.00;70583.66;4994336;28;20656;-67
2023/08/11 07:18:09;;;;;;;9.50;3.37;;;;;;;-145.14;100.00;70583.66;4991773;28;20718;-67
2023/08/11 07:20:36;;;;;;;8.57;3.27;;;;;;;-145.14;100.00;70583.66;4994555;28;20473;-67
2023/08/11 07:23:02;;;;;;;5.45;3.40;;;;;;;-145.14;100.00;70583.66;4996383;28;20444;-67
2023/08/11 07:25:28;;;;;;;4.50;3.33;;;;;;;-145.14;100.00;70583.66;5014620;23;20937;-70
2023/08/11 07:27:54;;;;;;;3.90;3.07;;;;;;;-145.14;100.00;70583.66;5012468;28;20898;-70
2023/08/11 07:30:19;;;;;;;3.43;2.87;;;;;;;-145.14;100.00;70583.66;5011580;28;20449;-70
2023/08/11 07:32:45;;;;;;;3.63;2.67;;;;;;;-145.14;100.00;70583.66;5012875;28;22619;-70
2023/08/11 07:35:10;;;;;;;3.50;2.47;;;;;;;-145.14;100.00;70583.66;5019251;28;20265;-70
2023/08/11 07:37:36;;;;;;;3.67;2.37;;;;;;;-145.14;100.00;70583.66;5012974;28;20193;-71
2023/08/11 07:40:02;;;;;;;5.00;2.23;;;;;;;-145.14;100.00;70583.66;5020171;28;20188;-70
2023/08/11 07:42:27;;;;;;;3.87;2.57;;;;;;;-145.14;100.00;70583.66;5020343;28;20187;-70
2023/08/11 07:44:53;;;;;;;5.30;2.53;;;;;;;-145.14;100.00;70583.66;5020077;28;20471;-71
2023/08/11 07:47:19;;;;;;;4.80;2.80;;;;;;;-145.14;100.00;70583.66;5010437;28;20213;-71
2023/08/11 07:49:44;;;;;;;4.90;2.77;;;;;;;-145.14;100.00;70583.66;5010080;28;20262;-71
2023/08/11 07:52:10;;;;;;;4.50;2.97;;;;;;;-145.14;100.00;70583.66;5010764;28;20430;-70
2023/08/11 07:54:35;;;;;;;2.53;2.13;;;;;;;-145.14;100.00;70583.66;5014559;28;20575;-70
2023/08/11 07:57:01;;;;;;;4.00;2.20;;;;;;;-145.14;100.00;70583.66;5019983;28;20289;-70
2023/08/11 07:59:26;;;;;;;5.23;2.93;;;;;;;-145.14;100.00;70583.66;5014686;28;20672;-70
2023/08/11 08:01:52;;;;;;;5.50;2.67;;;;;;;-145.14;100.00;70583.66;5015192;28;20721;-71
2023/08/11 08:04:17;;;;;;;4.30;2.07;;;;;;;-145.14;100.00;70583.66;5013368;28;20211;-70
2023/08/11 08:06:45;;;;;;;6.90;2.90;;;;;;;-145.14;100.00;70583.66;5015139;28;20223;-71
2023/08/11 08:09:12;;;;;;;2.77;2.37;;;;;;;-145.14;100.00;70583.66;5013791;28;20605;-70
2023/08/11 08:11:43;;;;;;;3.90;2.10;;;;;;;-145.14;100.00;70583.66;5012044;28;20442;-71
2023/08/11 08:14:10;;;;;;;5.97;2.87;;;;;;;-145.14;100.00;70583.66;5014960;28;20439;-70
2023/08/11 08:16:37;;;;;;;4.10;3.03;;;;;;;-145.14;100.00;70583.66;5014319;28;20464;-70
2023/08/11 08:19:03;;;;;;;3.90;2.10;;;;;;;-145.14;100.00;70583.66;5019527;28;20492;-70
2023/08/11 08:21:29;;;;;;;4.97;2.60;;;;;;;-145.14;100.00;70583.66;5019731;28;20874;-70
2023/08/11 08:23:54;;;;;;;3.63;2.40;;;;;;;-145.14;100.00;70583.66;5018693;28;20672;-70
2023/08/11 08:26:19;;;;;;;2.57;2.07;;;;;;;-145.14;100.00;70583.66;5018210;28;20215;-71
2023/08/11 08:28:45;;;;;;;2.57;1.87;;;;;;;-145.14;100.00;70583.66;5016073;28;20191;-70
2023/08/11 08:31:10;;;;;;;3.60;2.37;;;;;;;-145.14;100.00;70583.66;5014475;28;20197;-70
2023/08/11 08:33:36;;;;;;;2.73;2.07;;;;;;;-145.14;100.00;70583.66;5018198;28;20182;-71
2023/08/11 08:36:02;;;;;;;3.07;2.40;;;;;;;-145.14;100.00;70583.66;5018743;28;20204;-70
2023/08/11 08:38:27;;;;;;;3.90;2.50;;;;;;;-145.14;100.00;70583.66;5013170;28;20197;-71
2023/08/11 08:40:53;;;;;;;3.10;2.27;;;;;;;-145.14;100.00;70583.66;5016990;28;20459;-71
2023/08/11 08:43:18;;;;;;;6.53;2.67;;;;;;;-145.14;100.00;70583.66;5014602;28;20672;-70
2023/08/11 08:45:46;;;;;;;4.30;2.10;;;;;;;-145.14;100.00;70583.66;4993866;28;20221;-71
2023/08/11 08:48:25;;;;;;;3.87;1.93;;;;;;;-145.14;100.00;70583.66;5018458;28;20267;-71
2023/08/11 08:50:51;;;;;;;4.87;2.20;;;;;;;-145.14;100.00;70583.66;5017031;28;20440;-70
2023/08/11 08:53:18;;;;;;;3.17;1.60;;;;;;;-145.14;100.00;70583.66;5017140;28;20512;-71
2023/08/11 08:55:45;;;;;;;3.93;2.57;;;;;;;-145.14;100.00;70583.66;5016289;28;20200;-71
2023/08/11 08:58:12;;;;;;;2.27;1.60;;;;;;;-145.14;100.00;70583.66;5019253;28;20854;-71
2023/08/11 09:00:38;;;;;;;3.90;2.30;;;;;;;-145.14;100.00;70583.66;5018715;28;20508;-70
2023/08/11 09:03:05;;;;;;;3.03;2.10;;;;;;;-145.14;100.00;70583.66;5018582;28;20460;-71
2023/08/11 09:05:31;;;;;;;3.10;2.07;;;;;;;-145.14;100.00;70583.66;5020629;28;20467;-71
2023/08/11 09:07:57;;;;;;;2.80;1.77;;;;;;;-145.14;100.00;70583.66;5019061;28;20518;-71
2023/08/11 09:10:24;;;;;;;2.87;2.00;;;;;;;-145.14;100.00;70583.66;5020211;28;20451;-71
2023/08/11 09:12:50;;;;;;;3.77;1.90;;;;;;;-145.14;100.00;70583.66;5019118;28;20712;-71
2023/08/11 09:15:15;;;;;;;3.27;2.27;;;;;;;-145.14;100.00;70583.66;5017717;28;20467;-71
2023/08/11 09:17:41;;;;;;;2.93;1.83;;;;;;;-145.14;100.00;70583.66;5020079;28;20211;-71
2023/08/11 09:20:10;;;;;;;3.73;2.67;;;;;;;-145.14;100.00;70583.66;5015582;28;20233;-71
2023/08/11 09:22:38;;;;;;;5.20;1.93;;;;;;;-145.14;100.00;70583.66;5022393;28;20196;-70
2023/08/11 09:25:04;;;;;;;4.15;2.40;;;;;;;-145.14;100.00;70583.66;5008426;28;20907;-71
2023/08/11 09:27:30;;;;;;;4.13;2.17;;;;;;;-145.14;100.00;70583.66;5020797;28;20529;-71
2023/08/11 09:29:57;;;;;;;4.70;2.73;;;;;;;-145.14;100.00;70583.66;5011499;28;20453;-71
2023/08/11 09:32:23;;;;;;;5.33;2.77;;;;;;;-145.14;100.00;70583.66;5016348;28;20452;-71
2023/08/11 09:34:49;;;;;;;3.65;2.15;;;;;;;-145.14;100.00;70583.66;5015398;28;20454;-71
2023/08/11 09:37:14;;;;;;;6.70;2.40;;;;;;;-145.14;100.00;70583.66;5017862;28;20681;-71
2023/08/11 09:39:42;;;;;;;4.20;2.60;;;;;;;-145.14;100.00;70583.66;5016706;28;20450;-70
2023/08/11 09:42:08;;;;;;;4.53;3.30;;;;;;;-145.14;100.00;70583.66;5015423;28;20634;-71
2023/08/11 09:44:34;;;;;;;6.27;3.40;;;;;;;-145.14;100.00;70583.66;5018883;28;20464;-69
2023/08/11 09:47:03;;;;;;;5.80;3.30;;;;;;;-145.14;100.00;70583.66;5014947;28;20439;-69
2023/08/11 09:49:29;;;;;;;6.95;3.40;;;;;;;-145.14;100.00;70583.66;5021749;28;20798;-70
2023/08/11 09:51:54;;;;;;;;;;;;;;;-145.14;100.00;70583.66;5024206;28;20430;-70
2023/08/11 09:54:21;;;;;;;;;;;;;;;-145.14;100.00;70583.66;5016388;28;19917;-70
2023/08/11 09:56:48;;;;;;;6.70;3.43;;;;;;;-145.14;100.00;70583.66;5013804;28;19913;-70
2023/08/11 09:59:19;;;;;;;4.80;3.30;;;;;;;-145.14;100.00;70583.66;5016426;28;20457;-70
2023/08/11 10:01:46;;;;;;;4.00;2.80;;;;;;;-145.14;100.00;70583.66;5011404;28;20443;-70
2023/08/11 10:04:41;;;;;;;4.25;2.90;;;;;;;-145.14;100.00;70583.66;5014499;28;20570;-70
2023/08/11 10:07:14;;;;;;;5.20;2.50;;;;;;;-145.14;100.00;70583.66;5009108;28;20835;-70
2023/08/11 10:09:43;;;;;;;4.20;2.87;;;;;;;-145.14;100.00;70583.66;5011214;28;20558;-70
2023/08/11 10:12:09;;;;;;;4.83;2.40;;;;;;;-145.14;100.00;70583.66;5028956;28;20823;-70
2023/08/11 10:14:36;;;;;;;4.37;1.93;;;;;;;-145.14;100.00;70583.66;5012502;28;20451;-70
2023/08/11 10:17:03;;;;;;;3.70;2.30;;;;;;;-145.14;100.00;70583.66;5013118;28;20472;-70
2023/08/11 10:19:28;;;;;;;;;;;;;;;-145.14;100.00;70583.66;5015263;28;20318;-70
2023/08/11 10:21:55;;;;;;;4.43;2.90;;;;;;;-145.14;100.00;70583.66;5013125;28;20989;-70
2023/08/11 10:24:21;;;;;;;8.60;2.87;;;;;;;-145.14;100.00;70583.66;5014033;28;20271;-70
2023/08/11 10:26:47;;;;;;;5.20;2.63;;;;;;;-145.14;100.00;70583.66;5019845;28;20542;-69
2023/08/11 10:29:13;;;;;;;4.27;2.20;;;;;;;-145.14;100.00;70583.66;5017121;28;20454;-70
2023/08/11 10:31:54;;;;;;;5.13;3.00;;;;;;;-145.14;100.00;70583.66;5020785;28;20466;-70
2023/08/11 10:34:22;;;;;;;4.70;2.20;;;;;;;-145.14;100.00;70583.66;5019870;28;20203;-70
2023/08/11 10:36:47;;;;;;;3.63;2.07;;;;;;;-145.14;100.00;70583.66;5021411;28;20799;-70
2023/08/11 10:39:18;;;;;;;3.97;2.60;;;;;;;-145.14;100.00;70583.66;5021930;28;20498;-70
2023/08/11 10:41:45;;;;;;;3.60;2.50;;;;;;;-145.14;100.00;70583.66;5029058;28;20192;-70
2023/08/11 10:44:10;;;;;;;5.77;3.33;;;;;;;-145.14;100.00;70583.66;5015293;28;20436;-70
2023/08/11 10:46:36;;;;;;;4.10;2.30;;;;;;;-145.14;100.00;70583.66;5011957;28;20978;-70
2023/08/11 10:49:05;;;;;;;3.53;2.20;;;;;;;-145.14;100.00;70583.66;5008157;28;20188;-70
2023/08/11 10:51:36;;;;;;;4.00;2.50;;;;;;;-145.14;100.00;70583.66;5009833;28;21022;-70
2023/08/11 10:54:13;;;;;;;4.70;2.73;;;;;;;-145.14;100.00;70583.66;5014781;28;20463;-70
2023/08/11 10:56:40;;;;;;;;;;;;;;;-145.14;100.00;70583.66;5014957;28;20346;-70
2023/08/11 10:59:18;;;;;;;6.60;3.05;;;;;;;-145.14;100.00;70583.66;5012899;28;20981;-69
2023/08/11 11:01:46;;;;;;;8.83;3.40;;;;;;;-145.14;100.00;70583.66;5012834;28;20446;-69
2023/08/11 11:04:12;;;;;;;6.93;2.90;;;;;;;-145.14;100.00;70583.66;5010681;28;20451;-70
2023/08/11 11:06:39;;;;;;;5.15;2.90;;;;;;;-145.14;100.00;70583.66;5012658;28;20468;-69